Greater Peoria Regional Airport
KPIA : now visible

Airfield :











YOU CAN JOIN US ON...

 
LOGIN :

Register | Disclaimer

   EN    FR    IT 

 









Legend :    VFR   Marginal VFR   IFR   Intensive IFR   Very Intensive IFR
Visi :
Ceiling :
>= 8 km
>= 3000ft
5 to 8 km
1000 to 3000 ft
1500m to 5 km
500 to 1000 ft
800 to 1500m
200 to 500 ft
< 800m
< 200 ft
Symbols :   Thunderstorms  Fog  Heavy snow  Heavy precipitations  Wind > 20 kt






- Airport Elevation : 660 ft
- IATA code : PIA


KPIA - Greater Peoria Regional

CURRENT METAR :
  • 280754Z 05011KT 10SM FEW075 OVC100 09/06 A2962 RMK AO2 RAE47 PRESFR SLP029 P0003 T00940061

EXPIRED METARs :
  • 280654Z 09009KT 10SM -RA FEW075 OVC100 11/05 A2968 RMK AO2 RAB20 SLP049 P0000 T01060050
  • 280554Z 11008KT 10SM CLR 12/03 A2969 RMK AO2 SLP055 T01170033 10128 20117 401610067 58014

TAF KPIA
Valid from the 28 at 06:00 until the 29 at 06:00 UTC


280520Z 2806/2906 11008KT P6SM OVC200
FM280900 08011KT P6SM VCSH OVC070
FM281200 07011KT P6SM -SHRA OVC015
FM281400 06013KT 3SM -SHRA BR OVC008
FM281600 06013KT 2SM -SHRA BR OVC006
FM282100 07013KT 5SM BR VCSH OVC008
FM290300 02008KT 3SM -SHRA BR OVC004
KZAU FIR / North America



MET'MAP, your aeronautical weather chart ! - Copyright ORBIFLY December 2007 - Disclaimer

ORBIFLY MET'MAP TEAM :

Programming & Development : Alexandra Zaïnal
Concept & original design : Baudouin d'Aumeries
Assistance for programming : Marc-Olivier Méhu
Technical & hardware support : Manuel Goepfert

Contact : metmap@orbifly.com




SOURCES & CREDITS :

   NOAA       Earth
Advisory